Queenstown Aerodrome, New Zealand
Current Conditions -  °F | °C
As of 1:30 AM on Friday 31 Oct 2014 (Local Time) from NZCH Reporting Station
Clear Clear  
Wind Chill: 59°   Ceiling: Unl
Heat Index: 59°   Visibility: 6mi
Dew Point: 37°   Wind: 15mph
Humidity: 45%   Direction: 310°NW
Pressure: 29.47"   Gusts: NA
Location:  45.02°S, 168.73°E
Report Text: NZCH 301330Z AUTO 31013KT 9999 NCD 15/03 Q0998 NOSIG
Loading
Personal Weather Stations






























Interactive Weather Map
Tropical Storm Tracking
New forecast layout! Learn more

10-Day Weather Forecast

Advertisements
Track Severe Weather on mobile